Newark Bay — WDA6549 — position and weather

sailwx.info

Track history (hours):
 
Tides and Currents Weather Stations Pressure Air Temp Water Temp Dewpoint Dewpoint Depression Visibility Wind Speed Wind Dir Waves Ship Positions

Newark Bay

Owner: Donjon Marine Co., Inc., HILLSIDE, NJ. More information available from US FCC via Universal Licensing System and Coast Guard Vessel Documentation Center.

Last reported at 2017-Dec-10 21:26 UTC. Time now 2017-Dec-16 08:55 UTC.
Position N 40°41' W 074°08'.

Length 45 m.

Type: Ship (hazmat cat A). MMSI: 366833580.

Date/timePositionNaut miles runAvg speedWind from/ knotsBaromVisibWave heightAir tempDewpointWater temp
2017-Dec-10 21:26N 40°41' W 074°08'0 0.0
2017-Dec-10 21:00N 40°41' W 074°08'0 0.0
2017-Dec-10 20:30N 40°41' W 074°08'0 0.0
2017-Dec-10 20:00N 40°41' W 074°08'0 0.0
2017-Dec-10 19:30N 40°41' W 074°08'0 0.0
2017-Dec-10 19:00N 40°41' W 074°08'0 0.0
2017-Dec-10 18:29N 40°41' W 074°08'0 0.0
2017-Dec-10 17:59N 40°41' W 074°08'0 0.0
2017-Dec-10 17:30N 40°41' W 074°08'0 0.0
2017-Dec-10 17:00N 40°41' W 074°08'0 0.0
2017-Dec-10 16:30N 40°41' W 074°08'0 0.0
2017-Dec-10 16:01N 40°41' W 074°08'0 0.0
2017-Dec-10 15:30N 40°41' W 074°08'0 0.0
2017-Dec-10 15:00N 40°41' W 074°08'0 0.0
2017-Dec-10 14:30N 40°41' W 074°08'2 4.3
2017-Dec-10 13:59N 40°39' W 074°09'2 4.6
2017-Dec-10 13:29N 40°38' W 074°12'1 1.6
2017-Dec-10 12:59N 40°38' W 074°12'0 0.0
2017-Dec-10 12:30N 40°38' W 074°12'0 0.0
2017-Dec-10 12:01N 40°38' W 074°12'0 0.0
2017-Dec-10 11:30N 40°38' W 074°12'0 0.0
2017-Dec-10 11:00N 40°38' W 074°12'0 0.0
2017-Dec-10 10:30N 40°38' W 074°12'0 0.0
2017-Dec-10 09:59N 40°38' W 074°12'0 0.0
2017-Dec-10 09:29N 40°38' W 074°12'0 0.0
2017-Dec-10 09:00N 40°38' W 074°12'0 0.0
2017-Dec-10 08:29N 40°38' W 074°12'0 0.0
2017-Dec-10 07:59N 40°38' W 074°12'0 0.0
2017-Dec-10 07:30N 40°38' W 074°12'0 0.0
2017-Dec-10 07:01N 40°38' W 074°12'0 0.0
2017-Dec-10 06:31N 40°38' W 074°12'0 0.0
2017-Dec-10 06:00N 40°38' W 074°12'0 0.0
2017-Dec-10 05:30N 40°38' W 074°12'0 0.0
2017-Dec-10 05:00N 40°38' W 074°12'0 0.0
2017-Dec-10 04:30N 40°38' W 074°12'0 0.0
2017-Dec-10 04:00N 40°38' W 074°12'0 0.0
2017-Dec-10 03:30N 40°38' W 074°12'0 0.0
2017-Dec-10 02:59N 40°38' W 074°12'0 0.0
2017-Dec-10 02:30N 40°38' W 074°12'0 0.0
2017-Dec-10 02:00N 40°38' W 074°12'0 0.0
2017-Dec-10 01:30N 40°38' W 074°12'0 0.0
2017-Dec-10 01:00N 40°38' W 074°12'0 0.2
2017-Dec-10 00:30N 40°38' W 074°12'5 3.1
2017-Dec-09 23:03N 40°41' W 074°08'0 0.0
2017-Dec-09 23:00N 40°41' W 074°08'0 0.0
2017-Dec-09 22:31N 40°41' W 074°08'0 0.0
2017-Dec-09 22:00N 40°41' W 074°08'0 0.0
2017-Dec-09 21:30N 40°41' W 074°08'0 0.0
2017-Dec-09 21:00N 40°41' W 074°08'0 0.0
2017-Dec-09 20:30N 40°41' W 074°08'0 0.0
2017-Dec-09 20:00N 40°41' W 074°08'0 0.0
2017-Dec-09 19:29N 40°41' W 074°08'0 0.0
2017-Dec-09 19:00N 40°41' W 074°08'0 0.0
2017-Dec-09 18:30N 40°41' W 074°08'0 0.0
2017-Dec-09 18:00N 40°41' W 074°08'0 0.0
2017-Dec-09 17:30N 40°41' W 074°08'0 0.0
2017-Dec-09 17:00N 40°41' W 074°08'0 0.0
2017-Dec-09 16:29N 40°41' W 074°08'0 0.0
2017-Dec-09 16:00N 40°41' W 074°08'0 0.0
2017-Dec-09 15:30N 40°41' W 074°08'0 0.0
2017-Dec-09 15:00N 40°41' W 074°08'0 0.0
2017-Dec-09 14:30N 40°41' W 074°08'0 0.0
2017-Dec-09 14:00N 40°41' W 074°08'0 0.0
2017-Dec-09 13:30N 40°41' W 074°08'0 0.0
2017-Dec-09 13:00N 40°41' W 074°08'0 0.0
2017-Dec-08 22:15N 40°41' W 074°08'0 0.9
2017-Dec-08 22:00N 40°41' W 074°08'2 4.3
2017-Dec-08 21:30N 40°39' W 074°09'1 2.7
2017-Dec-08 21:01N 40°39' W 074°07'2 3.4
2017-Dec-08 20:31N 40°39' W 074°05'2 4.1
2017-Dec-08 20:01N 40°40' W 074°03'3 5.8
2017-Dec-08 19:30N 40°42' W 073°60'3 5.8
2017-Dec-08 19:01N 40°45' W 073°58'2 0.4
2017-Dec-08 14:13N 40°46' W 073°57'0 0.0
2017-Dec-08 14:00N 40°46' W 073°57'0 0.0
2017-Dec-08 12:49N 40°46' W 073°57'0 0.0
2017-Dec-08 12:20N 40°46' W 073°57'0 1.0
2017-Dec-08 12:00N 40°46' W 073°56'1 2.0
2017-Dec-08 11:30N 40°46' W 073°57'2 3.8
2017-Dec-08 11:00N 40°44' W 073°58'1 3.0
2017-Dec-08 10:31N 40°43' W 073°59'1 2.9
2017-Dec-08 10:01N 40°42' W 074°00'2 3.6
2017-Dec-08 09:30N 40°40' W 074°02'2 4.3
2017-Dec-08 09:00N 40°39' W 074°05'3 6.5
2017-Dec-08 08:29N 40°39' W 074°09'3 5.8
2017-Dec-08 08:00N 40°41' W 074°08'0 0.0
2017-Dec-07 15:29N 40°41' W 074°08'1 1.1
2017-Dec-07 15:00N 40°41' W 074°08'1 2.0
2017-Dec-07 14:29N 40°40' W 074°09'0 0.0
2017-Dec-07 14:00N 40°40' W 074°09'0 0.0
2017-Dec-07 13:31N 40°40' W 074°09'0 0.0
2017-Dec-07 13:00N 40°40' W 074°09'0 0.0
2017-Dec-07 12:29N 40°40' W 074°09'0 0.0
2017-Dec-07 12:00N 40°40' W 074°09'1 1.6
2017-Dec-07 11:30N 40°41' W 074°09'  
2017-Dec-01 14:39N 40°41' W 074°08'0 0.0
2017-Dec-01 14:30N 40°41' W 074°08'0 0.0
2017-Dec-01 14:00N 40°41' W 074°08'  
Track history (hours):
 
Tides and Currents Weather Stations Pressure Air Temp Water Temp Dewpoint Dewpoint Depression Visibility Wind Speed Wind Dir Waves Ship Positions

Newark Bay

Owner: Donjon Marine Co., Inc., HILLSIDE, NJ. More information available from US FCC via Universal Licensing System and Coast Guard Vessel Documentation Center.

Last reported at 2017-Dec-10 21:26 UTC. Time now 2017-Dec-16 08:55 UTC.
Position N 40°41' W 074°08'.

Length 45 m.

Type: Ship (hazmat cat A). MMSI: 366833580.

Date/timePositionNaut miles runAvg speedWind from/ knotsBaromVisibWave heightAir tempDewpointWater temp
2017-Dec-10 21:26N 40°41' W 074°08'0 0.0
2017-Dec-10 21:00N 40°41' W 074°08'0 0.0
2017-Dec-10 20:30N 40°41' W 074°08'0 0.0
2017-Dec-10 20:00N 40°41' W 074°08'0 0.0
2017-Dec-10 19:30N 40°41' W 074°08'0 0.0
2017-Dec-10 19:00N 40°41' W 074°08'0 0.0
2017-Dec-10 18:29N 40°41' W 074°08'0 0.0
2017-Dec-10 17:59N 40°41' W 074°08'0 0.0
2017-Dec-10 17:30N 40°41' W 074°08'0 0.0
2017-Dec-10 17:00N 40°41' W 074°08'0 0.0
2017-Dec-10 16:30N 40°41' W 074°08'0 0.0
2017-Dec-10 16:01N 40°41' W 074°08'0 0.0
2017-Dec-10 15:30N 40°41' W 074°08'0 0.0
2017-Dec-10 15:00N 40°41' W 074°08'0 0.0
2017-Dec-10 14:30N 40°41' W 074°08'2 4.3
2017-Dec-10 13:59N 40°39' W 074°09'2 4.6
2017-Dec-10 13:29N 40°38' W 074°12'1 1.6
2017-Dec-10 12:59N 40°38' W 074°12'0 0.0
2017-Dec-10 12:30N 40°38' W 074°12'0 0.0
2017-Dec-10 12:01N 40°38' W 074°12'0 0.0
2017-Dec-10 11:30N 40°38' W 074°12'0 0.0
2017-Dec-10 11:00N 40°38' W 074°12'0 0.0
2017-Dec-10 10:30N 40°38' W 074°12'0 0.0
2017-Dec-10 09:59N 40°38' W 074°12'0 0.0
2017-Dec-10 09:29N 40°38' W 074°12'0 0.0
2017-Dec-10 09:00N 40°38' W 074°12'0 0.0
2017-Dec-10 08:29N 40°38' W 074°12'0 0.0
2017-Dec-10 07:59N 40°38' W 074°12'0 0.0
2017-Dec-10 07:30N 40°38' W 074°12'0 0.0
2017-Dec-10 07:01N 40°38' W 074°12'0 0.0
2017-Dec-10 06:31N 40°38' W 074°12'0 0.0
2017-Dec-10 06:00N 40°38' W 074°12'0 0.0
2017-Dec-10 05:30N 40°38' W 074°12'0 0.0
2017-Dec-10 05:00N 40°38' W 074°12'0 0.0
2017-Dec-10 04:30N 40°38' W 074°12'0 0.0
2017-Dec-10 04:00N 40°38' W 074°12'0 0.0
2017-Dec-10 03:30N 40°38' W 074°12'0 0.0
2017-Dec-10 02:59N 40°38' W 074°12'0 0.0
2017-Dec-10 02:30N 40°38' W 074°12'0 0.0
2017-Dec-10 02:00N 40°38' W 074°12'0 0.0
2017-Dec-10 01:30N 40°38' W 074°12'0 0.0
2017-Dec-10 01:00N 40°38' W 074°12'0 0.2
2017-Dec-10 00:30N 40°38' W 074°12'5 3.1
2017-Dec-09 23:03N 40°41' W 074°08'0 0.0
2017-Dec-09 23:00N 40°41' W 074°08'0 0.0
2017-Dec-09 22:31N 40°41' W 074°08'0 0.0
2017-Dec-09 22:00N 40°41' W 074°08'0 0.0
2017-Dec-09 21:30N 40°41' W 074°08'0 0.0
2017-Dec-09 21:00N 40°41' W 074°08'0 0.0
2017-Dec-09 20:30N 40°41' W 074°08'0 0.0
2017-Dec-09 20:00N 40°41' W 074°08'0 0.0
2017-Dec-09 19:29N 40°41' W 074°08'0 0.0
2017-Dec-09 19:00N 40°41' W 074°08'0 0.0
2017-Dec-09 18:30N 40°41' W 074°08'0 0.0
2017-Dec-09 18:00N 40°41' W 074°08'0 0.0
2017-Dec-09 17:30N 40°41' W 074°08'0 0.0
2017-Dec-09 17:00N 40°41' W 074°08'0 0.0
2017-Dec-09 16:29N 40°41' W 074°08'0 0.0
2017-Dec-09 16:00N 40°41' W 074°08'0 0.0
2017-Dec-09 15:30N 40°41' W 074°08'0 0.0
2017-Dec-09 15:00N 40°41' W 074°08'0 0.0
2017-Dec-09 14:30N 40°41' W 074°08'0 0.0
2017-Dec-09 14:00N 40°41' W 074°08'0 0.0
2017-Dec-09 13:30N 40°41' W 074°08'0 0.0
2017-Dec-09 13:00N 40°41' W 074°08'0 0.0
2017-Dec-08 22:15N 40°41' W 074°08'0 0.9
2017-Dec-08 22:00N 40°41' W 074°08'2 4.3
2017-Dec-08 21:30N 40°39' W 074°09'1 2.7
2017-Dec-08 21:01N 40°39' W 074°07'2 3.4
2017-Dec-08 20:31N 40°39' W 074°05'2 4.1
2017-Dec-08 20:01N 40°40' W 074°03'3 5.8
2017-Dec-08 19:30N 40°42' W 073°60'3 5.8
2017-Dec-08 19:01N 40°45' W 073°58'2 0.4
2017-Dec-08 14:13N 40°46' W 073°57'0 0.0
2017-Dec-08 14:00N 40°46' W 073°57'0 0.0
2017-Dec-08 12:49N 40°46' W 073°57'0 0.0
2017-Dec-08 12:20N 40°46' W 073°57'0 1.0
2017-Dec-08 12:00N 40°46' W 073°56'1 2.0
2017-Dec-08 11:30N 40°46' W 073°57'2 3.8
2017-Dec-08 11:00N 40°44' W 073°58'1 3.0
2017-Dec-08 10:31N 40°43' W 073°59'1 2.9
2017-Dec-08 10:01N 40°42' W 074°00'2 3.6
2017-Dec-08 09:30N 40°40' W 074°02'2 4.3
2017-Dec-08 09:00N 40°39' W 074°05'3 6.5
2017-Dec-08 08:29N 40°39' W 074°09'3 5.8
2017-Dec-08 08:00N 40°41' W 074°08'0 0.0
2017-Dec-07 15:29N 40°41' W 074°08'1 1.1
2017-Dec-07 15:00N 40°41' W 074°08'1 2.0
2017-Dec-07 14:29N 40°40' W 074°09'0 0.0
2017-Dec-07 14:00N 40°40' W 074°09'0 0.0
2017-Dec-07 13:31N 40°40' W 074°09'0 0.0
2017-Dec-07 13:00N 40°40' W 074°09'0 0.0
2017-Dec-07 12:29N 40°40' W 074°09'0 0.0
2017-Dec-07 12:00N 40°40' W 074°09'1 1.6
2017-Dec-07 11:30N 40°41' W 074°09'  
2017-Dec-01 14:39N 40°41' W 074°08'0 0.0
2017-Dec-01 14:30N 40°41' W 074°08'0 0.0
2017-Dec-01 14:00N 40°41' W 074°08'  

Dump ship's entire track history